Asahikawa Air Base, Japan

8:27 PM JST on December 18, 2014 (GMT +0900)
Asahikawa | Change Station
CLOSE
Current Station
Airport
Location: Asahikawa Airport,
Elevation: 682 ft
Nearby Weather Stations

Elev 682 ft 43.67 °N, 142.45 °E | Updated 27 minutes ago

Light Snow Showers
Light Showers Snow
25 °F
Feels Like 13 °F
N
14
Wind Variable Wind from NNW

Today
High -- | Low -- °F
--% Chance of Precip.
Yesterday
High -- | Low -- °F
Precip. -- in
6:59 AM 3:54 PM
Waning Crescent, 15% visible
Pressure 29.95 in
Visibility 6.2 miles
Clouds Few 1500 ft
Mostly Cloudy 3000 ft
Windchill 13 °F
Dew Point 21 °F
Humidity 86%
Rainfall 0.00 in
Snow Depth Not available.
UV 0 out of 12
Pollen Not available.
Air Quality Not available.
Flu Activity Not available.
METAR RJEC 181100Z 34012KT 9999 -SHSN FEW015 BKN030 M04/M06 Q1014

More Conditions Fewer Conditions

Pressure 29.95 in
Visibility 6.2 miles
Clouds Few 1500 ft
Mostly Cloudy 3000 ft
Windchill 13 °F
Dew Point 21 °F
Humidity 86%
Rainfall 0.00 in
Snow Depth Not available.
UV 0 out of 12
Pollen Not available.
Air Quality Not available.
Flu Activity Not available.
METAR RJEC 181100Z 34012KT 9999 -SHSN FEW015 BKN030 M04/M06 Q1014

More Conditions Fewer Conditions

10-Day Weather Forecast

Almanac

Astronomy

Dec. 18, 2014 Rise Set
Actual Time
Civil Twilight
Nautical Twilight
Astronomical Twilight
Moon
Length of Visible Light
Length of Day
Tomorrow will be .
, % of the Moon is Illuminated

Today's Extremes

Country Highs Country Lows

Community

WunderPhotos

Upload Photos

1,778,916 photos uploaded!

WunderBlogs® & News

Nearby

Air Quality

  Air Quality AQ Index Pollutant
Not available.

Snow Depth

Station Depth Elevation

Earthquake Activity

City Distance Mag. Time & Date
Minimum magnitude displayed is 2.5.

Coastal Water Temperatures

Place Temperature

Nearby Weather Stations